sensor_id;sensor_type;location;lat;lon;timestamp;P1;durP1;ratioP1;P2;durP2;ratioP2
55827;SDS011;41758;51.992;5.890;2022-09-13T00:00:07;13.68;;;10.77;;
55827;SDS011;41758;51.992;5.890;2022-09-13T00:02:33;15.15;;;11.48;;
55827;SDS011;41758;51.992;5.890;2022-09-13T00:04:59;13.52;;;11.02;;
55827;SDS011;41758;51.992;5.890;2022-09-13T00:07:25;12.07;;;10.88;;
55827;SDS011;41758;51.992;5.890;2022-09-13T00:09:50;11.85;;;10.20;;
55827;SDS011;41758;51.992;5.890;2022-09-13T00:12:16;11.88;;;9.93;;
55827;SDS011;41758;51.992;5.890;2022-09-13T00:14:41;12.98;;;11.15;;
55827;SDS011;41758;51.992;5.890;2022-09-13T00:17:07;13.88;;;11.15;;
55827;SDS011;41758;51.992;5.890;2022-09-13T00:19:33;16.13;;;13.25;;
55827;SDS011;41758;51.992;5.890;2022-09-13T00:21:58;15.90;;;13.55;;
55827;SDS011;41758;51.992;5.890;2022-09-13T00:24:24;17.65;;;14.23;;
55827;SDS011;41758;51.992;5.890;2022-09-13T00:26:50;15.13;;;13.48;;
55827;SDS011;41758;51.992;5.890;2022-09-13T00:29:15;18.95;;;14.50;;
55827;SDS011;41758;51.992;5.890;2022-09-13T00:31:41;15.43;;;13.82;;
55827;SDS011;41758;51.992;5.890;2022-09-13T00:34:07;16.80;;;14.13;;
55827;SDS011;41758;51.992;5.890;2022-09-13T00:36:32;16.38;;;13.35;;
55827;SDS011;41758;51.992;5.890;2022-09-13T00:38:59;15.77;;;14.23;;
55827;SDS011;41758;51.992;5.890;2022-09-13T00:41:25;16.15;;;14.45;;
55827;SDS011;41758;51.992;5.890;2022-09-13T00:43:52;17.90;;;14.90;;
55827;SDS011;41758;51.992;5.890;2022-09-13T00:46:44;18.70;;;15.52;;
55827;SDS011;41758;51.992;5.890;2022-09-13T00:49:17;17.45;;;13.98;;
55827;SDS011;41758;51.992;5.890;2022-09-13T00:51:49;21.55;;;15.05;;
55827;SDS011;41758;51.992;5.890;2022-09-13T00:54:21;19.60;;;14.87;;
55827;SDS011;41758;51.992;5.890;2022-09-13T00:56:51;17.55;;;14.25;;
55827;SDS011;41758;51.992;5.890;2022-09-13T00:59:42;15.45;;;13.85;;
55827;SDS011;41758;51.992;5.890;2022-09-13T01:02:17;17.95;;;14.73;;
55827;SDS011;41758;51.992;5.890;2022-09-13T01:04:43;15.75;;;14.05;;
55827;SDS011;41758;51.992;5.890;2022-09-13T01:07:10;17.77;;;15.73;;
55827;SDS011;41758;51.992;5.890;2022-09-13T01:09:39;16.77;;;14.90;;
55827;SDS011;41758;51.992;5.890;2022-09-13T01:12:30;19.35;;;15.70;;
55827;SDS011;41758;51.992;5.890;2022-09-13T01:15:17;17.83;;;15.40;;
55827;SDS011;41758;51.992;5.890;2022-09-13T01:17:43;17.83;;;15.93;;
55827;SDS011;41758;51.992;5.890;2022-09-13T01:20:09;19.67;;;15.50;;
55827;SDS011;41758;51.992;5.890;2022-09-13T01:26:17;15.98;;;14.38;;
55827;SDS011;41758;51.992;5.890;2022-09-13T01:29:07;17.60;;;15.60;;
55827;SDS011;41758;51.992;5.890;2022-09-13T01:31:57;20.08;;;15.32;;
55827;SDS011;41758;51.992;5.890;2022-09-13T01:43:06;19.48;;;15.73;;
55827;SDS011;41758;51.992;5.890;2022-09-13T01:46:05;17.42;;;14.77;;
55827;SDS011;41758;51.992;5.890;2022-09-13T01:51:43;17.02;;;12.98;;
55827;SDS011;41758;51.992;5.890;2022-09-13T01:57:02;13.95;;;12.52;;
55827;SDS011;41758;51.992;5.890;2022-09-13T01:59:51;13.75;;;11.90;;
55827;SDS011;41758;51.992;5.890;2022-09-13T02:05:18;16.20;;;13.82;;
55827;SDS011;41758;51.992;5.890;2022-09-13T02:10:21;18.25;;;14.13;;
55827;SDS011;41758;51.992;5.890;2022-09-13T02:12:51;16.50;;;14.70;;
55827;SDS011;41758;51.992;5.890;2022-09-13T02:15:24;15.70;;;13.82;;
55827;SDS011;41758;51.992;5.890;2022-09-13T02:18:06;18.90;;;16.52;;
55827;SDS011;41758;51.992;5.890;2022-09-13T02:20:36;19.45;;;17.10;;
55827;SDS011;41758;51.992;5.890;2022-09-13T02:23:12;18.65;;;16.70;;
55827;SDS011;41758;51.992;5.890;2022-09-13T02:25:41;18.40;;;16.50;;
55827;SDS011;41758;51.992;5.890;2022-09-13T02:28:13;18.85;;;16.50;;
55827;SDS011;41758;51.992;5.890;2022-09-13T02:30:43;18.98;;;17.08;;
55827;SDS011;41758;51.992;5.890;2022-09-13T02:33:16;18.63;;;15.10;;
55827;SDS011;41758;51.992;5.890;2022-09-13T02:35:50;13.13;;;11.73;;
55827;SDS011;41758;51.992;5.890;2022-09-13T02:38:21;15.23;;;12.35;;
55827;SDS011;41758;51.992;5.890;2022-09-13T02:40:56;17.27;;;12.45;;
55827;SDS011;41758;51.992;5.890;2022-09-13T02:43:38;15.38;;;11.30;;
55827;SDS011;41758;51.992;5.890;2022-09-13T02:51:37;13.77;;;12.38;;
55827;SDS011;41758;51.992;5.890;2022-09-13T02:54:24;15.95;;;12.77;;
55827;SDS011;41758;51.992;5.890;2022-09-13T02:57:00;14.05;;;11.40;;
55827;SDS011;41758;51.992;5.890;2022-09-13T02:59:32;18.08;;;11.88;;
55827;SDS011;41758;51.992;5.890;2022-09-13T03:04:28;14.85;;;11.93;;
55827;SDS011;41758;51.992;5.890;2022-09-13T03:06:53;16.55;;;12.77;;
55827;SDS011;41758;51.992;5.890;2022-09-13T03:09:19;19.02;;;13.80;;
55827;SDS011;41758;51.992;5.890;2022-09-13T03:11:58;18.83;;;13.00;;
55827;SDS011;41758;51.992;5.890;2022-09-13T03:17:27;16.55;;;13.00;;
55827;SDS011;41758;51.992;5.890;2022-09-13T03:29:19;16.85;;;14.85;;
55827;SDS011;41758;51.992;5.890;2022-09-13T03:31:37;16.10;;;14.40;;
55827;SDS011;41758;51.992;5.890;2022-09-13T03:36:43;17.23;;;14.43;;
55827;SDS011;41758;51.992;5.890;2022-09-13T03:39:24;15.55;;;13.40;;
55827;SDS011;41758;51.992;5.890;2022-09-13T03:42:02;17.75;;;13.77;;
55827;SDS011;41758;51.992;5.890;2022-09-13T03:44:35;15.40;;;13.60;;
55827;SDS011;41758;51.992;5.890;2022-09-13T03:47:03;15.27;;;13.60;;
55827;SDS011;41758;51.992;5.890;2022-09-13T03:49:30;15.60;;;13.95;;
55827;SDS011;41758;51.992;5.890;2022-09-13T03:51:57;16.02;;;14.02;;
55827;SDS011;41758;51.992;5.890;2022-09-13T03:54:24;18.05;;;14.10;;
55827;SDS011;41758;51.992;5.890;2022-09-13T03:57:04;16.75;;;14.70;;
55827;SDS011;41758;51.992;5.890;2022-09-13T03:59:35;24.02;;;16.38;;
55827;SDS011;41758;51.992;5.890;2022-09-13T04:02:03;17.33;;;14.65;;
55827;SDS011;41758;51.992;5.890;2022-09-13T04:04:30;18.52;;;16.52;;
55827;SDS011;41758;51.992;5.890;2022-09-13T04:06:57;16.38;;;13.35;;
55827;SDS011;41758;51.992;5.890;2022-09-13T04:09:25;16.90;;;12.63;;
55827;SDS011;41758;51.992;5.890;2022-09-13T04:11:51;13.65;;;10.73;;
55827;SDS011;41758;51.992;5.890;2022-09-13T04:14:17;13.20;;;11.05;;
55827;SDS011;41758;51.992;5.890;2022-09-13T04:16:42;13.45;;;11.15;;
55827;SDS011;41758;51.992;5.890;2022-09-13T04:19:08;15.52;;;11.48;;
55827;SDS011;41758;51.992;5.890;2022-09-13T04:21:34;15.75;;;14.05;;
55827;SDS011;41758;51.992;5.890;2022-09-13T04:24:00;17.40;;;14.82;;
55827;SDS011;41758;51.992;5.890;2022-09-13T04:26:26;17.83;;;14.60;;
55827;SDS011;41758;51.992;5.890;2022-09-13T04:28:52;15.70;;;13.30;;
55827;SDS011;41758;51.992;5.890;2022-09-13T04:31:17;16.98;;;14.45;;
55827;SDS011;41758;51.992;5.890;2022-09-13T04:33:43;18.55;;;15.05;;
55827;SDS011;41758;51.992;5.890;2022-09-13T04:36:09;18.08;;;16.17;;
55827;SDS011;41758;51.992;5.890;2022-09-13T04:38:35;18.33;;;16.35;;
55827;SDS011;41758;51.992;5.890;2022-09-13T04:41:01;18.95;;;16.60;;
55827;SDS011;41758;51.992;5.890;2022-09-13T04:43:27;18.80;;;16.80;;
55827;SDS011;41758;51.992;5.890;2022-09-13T04:45:52;19.80;;;17.58;;
55827;SDS011;41758;51.992;5.890;2022-09-13T04:48:21;19.63;;;17.55;;
55827;SDS011;41758;51.992;5.890;2022-09-13T04:50:47;19.42;;;17.35;;
55827;SDS011;41758;51.992;5.890;2022-09-13T04:53:13;19.05;;;16.73;;
55827;SDS011;41758;51.992;5.890;2022-09-13T04:55:38;18.50;;;16.60;;
55827;SDS011;41758;51.992;5.890;2022-09-13T04:58:04;22.98;;;16.65;;
55827;SDS011;41758;51.992;5.890;2022-09-13T05:00:30;17.25;;;15.43;;
55827;SDS011;41758;51.992;5.890;2022-09-13T05:02:56;18.48;;;14.75;;
55827;SDS011;41758;51.992;5.890;2022-09-13T05:05:22;20.63;;;16.88;;
55827;SDS011;41758;51.992;5.890;2022-09-13T05:07:50;18.88;;;16.50;;
55827;SDS011;41758;51.992;5.890;2022-09-13T05:10:16;20.48;;;18.30;;
55827;SDS011;41758;51.992;5.890;2022-09-13T05:12:42;24.73;;;18.08;;
55827;SDS011;41758;51.992;5.890;2022-09-13T05:15:08;19.52;;;17.45;;
55827;SDS011;41758;51.992;5.890;2022-09-13T05:17:34;19.63;;;16.08;;
55827;SDS011;41758;51.992;5.890;2022-09-13T05:20:00;18.65;;;16.80;;
55827;SDS011;41758;51.992;5.890;2022-09-13T05:22:27;19.88;;;17.88;;
55827;SDS011;41758;51.992;5.890;2022-09-13T05:24:52;19.75;;;16.30;;
55827;SDS011;41758;51.992;5.890;2022-09-13T05:27:18;20.10;;;17.52;;
55827;SDS011;41758;51.992;5.890;2022-09-13T05:29:44;21.95;;;18.60;;
55827;SDS011;41758;51.992;5.890;2022-09-13T05:32:09;19.48;;;16.58;;
55827;SDS011;41758;51.992;5.890;2022-09-13T05:34:35;18.45;;;16.30;;
55827;SDS011;41758;51.992;5.890;2022-09-13T05:37:01;22.25;;;17.10;;
55827;SDS011;41758;51.992;5.890;2022-09-13T05:39:26;20.80;;;18.70;;
55827;SDS011;41758;51.992;5.890;2022-09-13T05:41:52;21.35;;;17.50;;
55827;SDS011;41758;51.992;5.890;2022-09-13T05:44:18;19.30;;;17.33;;
55827;SDS011;41758;51.992;5.890;2022-09-13T05:46:46;20.27;;;17.42;;
55827;SDS011;41758;51.992;5.890;2022-09-13T05:49:12;22.65;;;18.63;;
55827;SDS011;41758;51.992;5.890;2022-09-13T05:51:38;21.17;;;18.83;;
55827;SDS011;41758;51.992;5.890;2022-09-13T05:54:04;21.95;;;17.02;;
55827;SDS011;41758;51.992;5.890;2022-09-13T05:56:30;21.50;;;18.90;;
55827;SDS011;41758;51.992;5.890;2022-09-13T05:58:56;20.67;;;18.25;;
55827;SDS011;41758;51.992;5.890;2022-09-13T06:01:23;19.02;;;16.38;;
55827;SDS011;41758;51.992;5.890;2022-09-13T06:03:50;17.52;;;14.90;;
55827;SDS011;41758;51.992;5.890;2022-09-13T06:06:18;17.63;;;14.85;;
55827;SDS011;41758;51.992;5.890;2022-09-13T06:08:44;18.95;;;15.02;;
55827;SDS011;41758;51.992;5.890;2022-09-13T06:11:10;17.48;;;15.68;;
55827;SDS011;41758;51.992;5.890;2022-09-13T06:13:37;19.27;;;16.80;;
55827;SDS011;41758;51.992;5.890;2022-09-13T06:16:05;21.25;;;18.23;;
55827;SDS011;41758;51.992;5.890;2022-09-13T06:18:32;20.13;;;16.73;;
55827;SDS011;41758;51.992;5.890;2022-09-13T06:20:59;18.52;;;14.75;;
55827;SDS011;41758;51.992;5.890;2022-09-13T06:23:27;17.35;;;14.18;;
55827;SDS011;41758;51.992;5.890;2022-09-13T06:26:04;19.23;;;14.32;;
55827;SDS011;41758;51.992;5.890;2022-09-13T06:28:34;16.95;;;13.75;;
55827;SDS011;41758;51.992;5.890;2022-09-13T06:31:04;16.88;;;13.63;;
55827;SDS011;41758;51.992;5.890;2022-09-13T06:33:32;15.45;;;13.27;;
55827;SDS011;41758;51.992;5.890;2022-09-13T06:36:05;23.85;;;18.70;;
55827;SDS011;41758;51.992;5.890;2022-09-13T06:38:32;22.38;;;19.27;;
55827;SDS011;41758;51.992;5.890;2022-09-13T06:41:02;26.83;;;20.33;;
55827;SDS011;41758;51.992;5.890;2022-09-13T06:43:30;23.27;;;20.83;;
55827;SDS011;41758;51.992;5.890;2022-09-13T06:46:00;24.17;;;21.13;;
55827;SDS011;41758;51.992;5.890;2022-09-13T06:48:35;22.58;;;19.70;;
55827;SDS011;41758;51.992;5.890;2022-09-13T06:51:03;20.98;;;18.70;;
55827;SDS011;41758;51.992;5.890;2022-09-13T06:53:33;24.65;;;19.45;;
55827;SDS011;41758;51.992;5.890;2022-09-13T06:58:33;23.58;;;20.33;;
55827;SDS011;41758;51.992;5.890;2022-09-13T07:01:04;25.48;;;21.35;;
55827;SDS011;41758;51.992;5.890;2022-09-13T07:03:34;34.65;;;24.52;;
55827;SDS011;41758;51.992;5.890;2022-09-13T07:06:00;28.45;;;23.38;;
55827;SDS011;41758;51.992;5.890;2022-09-13T07:08:34;31.75;;;25.80;;
55827;SDS011;41758;51.992;5.890;2022-09-13T07:11:00;28.67;;;24.13;;
55827;SDS011;41758;51.992;5.890;2022-09-13T07:13:26;28.80;;;24.77;;
55827;SDS011;41758;51.992;5.890;2022-09-13T07:15:51;31.55;;;26.63;;
55827;SDS011;41758;51.992;5.890;2022-09-13T07:18:17;35.22;;;28.50;;
55827;SDS011;41758;51.992;5.890;2022-09-13T07:20:43;33.33;;;26.65;;
55827;SDS011;41758;51.992;5.890;2022-09-13T07:23:08;39.55;;;29.55;;
55827;SDS011;41758;51.992;5.890;2022-09-13T07:25:34;33.97;;;27.45;;
55827;SDS011;41758;51.992;5.890;2022-09-13T07:28:00;35.30;;;27.65;;
55827;SDS011;41758;51.992;5.890;2022-09-13T07:30:25;37.10;;;28.30;;
55827;SDS011;41758;51.992;5.890;2022-09-13T07:32:51;26.77;;;22.27;;
55827;SDS011;41758;51.992;5.890;2022-09-13T07:35:17;33.35;;;24.95;;
55827;SDS011;41758;51.992;5.890;2022-09-13T07:37:42;30.98;;;23.85;;
55827;SDS011;41758;51.992;5.890;2022-09-13T07:40:10;26.30;;;19.50;;
55827;SDS011;41758;51.992;5.890;2022-09-13T07:42:36;31.30;;;23.38;;
55827;SDS011;41758;51.992;5.890;2022-09-13T07:45:02;26.13;;;22.15;;
55827;SDS011;41758;51.992;5.890;2022-09-13T07:47:31;25.35;;;19.45;;
55827;SDS011;41758;51.992;5.890;2022-09-13T07:49:57;27.83;;;21.20;;
55827;SDS011;41758;51.992;5.890;2022-09-13T07:52:23;21.77;;;17.88;;
55827;SDS011;41758;51.992;5.890;2022-09-13T07:54:49;23.90;;;19.13;;
55827;SDS011;41758;51.992;5.890;2022-09-13T07:57:14;21.92;;;16.77;;
55827;SDS011;41758;51.992;5.890;2022-09-13T07:59:40;21.63;;;16.85;;
55827;SDS011;41758;51.992;5.890;2022-09-13T08:02:07;20.63;;;15.43;;
55827;SDS011;41758;51.992;5.890;2022-09-13T08:04:36;16.02;;;12.07;;
55827;SDS011;41758;51.992;5.890;2022-09-13T08:07:02;13.10;;;10.00;;
55827;SDS011;41758;51.992;5.890;2022-09-13T08:09:28;12.55;;;8.48;;
55827;SDS011;41758;51.992;5.890;2022-09-13T08:11:53;13.90;;;10.30;;
55827;SDS011;41758;51.992;5.890;2022-09-13T08:14:20;16.63;;;11.60;;
55827;SDS011;41758;51.992;5.890;2022-09-13T08:16:46;12.27;;;9.63;;
55827;SDS011;41758;51.992;5.890;2022-09-13T08:19:13;11.40;;;8.30;;
55827;SDS011;41758;51.992;5.890;2022-09-13T08:21:41;17.42;;;10.30;;
55827;SDS011;41758;51.992;5.890;2022-09-13T08:24:10;13.60;;;10.40;;
55827;SDS011;41758;51.992;5.890;2022-09-13T08:26:41;15.27;;;11.80;;
55827;SDS011;41758;51.992;5.890;2022-09-13T08:29:07;23.92;;;16.10;;
55827;SDS011;41758;51.992;5.890;2022-09-13T08:31:35;19.60;;;16.35;;
55827;SDS011;41758;51.992;5.890;2022-09-13T08:34:00;22.35;;;18.75;;
55827;SDS011;41758;51.992;5.890;2022-09-13T08:36:26;24.65;;;19.23;;
55827;SDS011;41758;51.992;5.890;2022-09-13T08:38:54;26.65;;;20.20;;
55827;SDS011;41758;51.992;5.890;2022-09-13T08:46:47;28.33;;;22.70;;
55827;SDS011;41758;51.992;5.890;2022-09-13T08:49:22;28.27;;;21.60;;
55827;SDS011;41758;51.992;5.890;2022-09-13T08:54:27;25.15;;;21.70;;
55827;SDS011;41758;51.992;5.890;2022-09-13T08:57:04;22.75;;;19.63;;
55827;SDS011;41758;51.992;5.890;2022-09-13T09:05:04;23.55;;;20.83;;
55827;SDS011;41758;51.992;5.890;2022-09-13T09:07:45;24.50;;;18.00;;
55827;SDS011;41758;51.992;5.890;2022-09-13T09:10:24;18.02;;;14.90;;
55827;SDS011;41758;51.992;5.890;2022-09-13T09:13:02;24.65;;;16.90;;
55827;SDS011;41758;51.992;5.890;2022-09-13T09:15:41;22.58;;;16.75;;
55827;SDS011;41758;51.992;5.890;2022-09-13T09:18:13;19.40;;;16.15;;
55827;SDS011;41758;51.992;5.890;2022-09-13T09:23:18;15.00;;;12.73;;
55827;SDS011;41758;51.992;5.890;2022-09-13T09:25:50;20.38;;;13.95;;
55827;SDS011;41758;51.992;5.890;2022-09-13T09:28:19;16.60;;;14.60;;
55827;SDS011;41758;51.992;5.890;2022-09-13T09:30:54;16.08;;;13.80;;
55827;SDS011;41758;51.992;5.890;2022-09-13T09:33:59;17.75;;;14.43;;
55827;SDS011;41758;51.992;5.890;2022-09-13T09:36:32;16.52;;;12.98;;
55827;SDS011;41758;51.992;5.890;2022-09-13T09:39:05;14.63;;;11.65;;
55827;SDS011;41758;51.992;5.890;2022-09-13T09:41:36;14.82;;;11.73;;
55827;SDS011;41758;51.992;5.890;2022-09-13T09:44:25;15.05;;;11.25;;
55827;SDS011;41758;51.992;5.890;2022-09-13T09:46:59;13.70;;;10.60;;
55827;SDS011;41758;51.992;5.890;2022-09-13T09:52:22;13.80;;;9.98;;
55827;SDS011;41758;51.992;5.890;2022-09-13T09:54:52;11.07;;;9.82;;
55827;SDS011;41758;51.992;5.890;2022-09-13T10:00:31;14.35;;;8.77;;
55827;SDS011;41758;51.992;5.890;2022-09-13T10:03:16;11.32;;;8.40;;
55827;SDS011;41758;51.992;5.890;2022-09-13T10:05:44;11.70;;;8.18;;
55827;SDS011;41758;51.992;5.890;2022-09-13T10:08:29;11.77;;;8.30;;
55827;SDS011;41758;51.992;5.890;2022-09-13T10:10:57;11.25;;;9.02;;
55827;SDS011;41758;51.992;5.890;2022-09-13T10:13:24;10.43;;;8.55;;
55827;SDS011;41758;51.992;5.890;2022-09-13T10:15:55;12.10;;;8.30;;
55827;SDS011;41758;51.992;5.890;2022-09-13T10:18:28;10.52;;;8.25;;
55827;SDS011;41758;51.992;5.890;2022-09-13T10:20:59;9.63;;;7.80;;
55827;SDS011;41758;51.992;5.890;2022-09-13T10:23:26;10.38;;;7.43;;
55827;SDS011;41758;51.992;5.890;2022-09-13T10:28:41;10.45;;;8.07;;
55827;SDS011;41758;51.992;5.890;2022-09-13T10:31:20;11.57;;;7.85;;
55827;SDS011;41758;51.992;5.890;2022-09-13T10:36:31;9.38;;;6.43;;
55827;SDS011;41758;51.992;5.890;2022-09-13T10:39:00;9.63;;;6.00;;
55827;SDS011;41758;51.992;5.890;2022-09-13T10:41:50;9.48;;;5.80;;
55827;SDS011;41758;51.992;5.890;2022-09-13T10:44:27;9.10;;;6.22;;
55827;SDS011;41758;51.992;5.890;2022-09-13T10:46:53;7.75;;;5.53;;
55827;SDS011;41758;51.992;5.890;2022-09-13T10:49:43;8.35;;;5.50;;
55827;SDS011;41758;51.992;5.890;2022-09-13T10:52:22;9.32;;;5.25;;
55827;SDS011;41758;51.992;5.890;2022-09-13T10:55:31;9.57;;;5.78;;
55827;SDS011;41758;51.992;5.890;2022-09-13T11:00:38;8.07;;;5.00;;
55827;SDS011;41758;51.992;5.890;2022-09-13T11:06:19;8.65;;;4.30;;
55827;SDS011;41758;51.992;5.890;2022-09-13T11:09:22;7.70;;;4.18;;
55827;SDS011;41758;51.992;5.890;2022-09-13T11:26:02;7.25;;;3.17;;
55827;SDS011;41758;51.992;5.890;2022-09-13T11:36:53;5.10;;;2.30;;
55827;SDS011;41758;51.992;5.890;2022-09-13T11:39:37;6.53;;;2.33;;
55827;SDS011;41758;51.992;5.890;2022-09-13T11:42:29;7.10;;;2.67;;
55827;SDS011;41758;51.992;5.890;2022-09-13T11:47:53;5.65;;;2.60;;
55827;SDS011;41758;51.992;5.890;2022-09-13T11:50:41;7.20;;;2.22;;
55827;SDS011;41758;51.992;5.890;2022-09-13T11:53:34;5.57;;;2.80;;
55827;SDS011;41758;51.992;5.890;2022-09-13T11:59:00;4.93;;;2.03;;
55827;SDS011;41758;51.992;5.890;2022-09-13T12:01:48;4.70;;;1.80;;
55827;SDS011;41758;51.992;5.890;2022-09-13T12:04:24;4.57;;;1.90;;
55827;SDS011;41758;51.992;5.890;2022-09-13T12:07:02;3.67;;;1.95;;
55827;SDS011;41758;51.992;5.890;2022-09-13T12:09:34;4.63;;;1.90;;
55827;SDS011;41758;51.992;5.890;2022-09-13T12:12:05;4.70;;;1.90;;
55827;SDS011;41758;51.992;5.890;2022-09-13T12:19:48;4.50;;;2.00;;
55827;SDS011;41758;51.992;5.890;2022-09-13T12:22:22;4.93;;;2.38;;
55827;SDS011;41758;51.992;5.890;2022-09-13T12:24:53;6.60;;;2.50;;
55827;SDS011;41758;51.992;5.890;2022-09-13T12:30:15;6.57;;;2.00;;
55827;SDS011;41758;51.992;5.890;2022-09-13T12:32:43;6.45;;;1.83;;
55827;SDS011;41758;51.992;5.890;2022-09-13T12:35:27;3.00;;;1.73;;
55827;SDS011;41758;51.992;5.890;2022-09-13T12:46:31;4.85;;;1.73;;
55827;SDS011;41758;51.992;5.890;2022-09-13T12:49:24;7.00;;;2.38;;
55827;SDS011;41758;51.992;5.890;2022-09-13T13:01:58;3.75;;;1.70;;
55827;SDS011;41758;51.992;5.890;2022-09-13T13:04:31;5.85;;;2.65;;
55827;SDS011;41758;51.992;5.890;2022-09-13T13:07:04;4.32;;;1.60;;
55827;SDS011;41758;51.992;5.890;2022-09-13T13:12:06;10.00;;;7.22;;
55827;SDS011;41758;51.992;5.890;2022-09-13T13:14:48;6.38;;;1.98;;
55827;SDS011;41758;51.992;5.890;2022-09-13T13:17:33;5.70;;;1.90;;
55827;SDS011;41758;51.992;5.890;2022-09-13T13:26:00;4.63;;;1.60;;
55827;SDS011;41758;51.992;5.890;2022-09-13T13:33:49;4.93;;;1.60;;
55827;SDS011;41758;51.992;5.890;2022-09-13T13:36:26;5.50;;;1.40;;
55827;SDS011;41758;51.992;5.890;2022-09-13T13:49:49;4.60;;;1.60;;
55827;SDS011;41758;51.992;5.890;2022-09-13T13:59:57;3.67;;;1.50;;
55827;SDS011;41758;51.992;5.890;2022-09-13T14:16:01;3.70;;;1.60;;
55827;SDS011;41758;51.992;5.890;2022-09-13T14:18:36;3.90;;;1.70;;
55827;SDS011;41758;51.992;5.890;2022-09-13T14:21:30;7.55;;;1.70;;
55827;SDS011;41758;51.992;5.890;2022-09-13T14:26:41;4.32;;;1.83;;
55827;SDS011;41758;51.992;5.890;2022-09-13T14:29:07;5.65;;;1.50;;
55827;SDS011;41758;51.992;5.890;2022-09-13T14:31:34;3.85;;;1.50;;
55827;SDS011;41758;51.992;5.890;2022-09-13T14:34:01;9.27;;;1.70;;
55827;SDS011;41758;51.992;5.890;2022-09-13T14:36:27;5.75;;;1.75;;
55827;SDS011;41758;51.992;5.890;2022-09-13T14:38:57;6.15;;;1.40;;
55827;SDS011;41758;51.992;5.890;2022-09-13T14:41:33;4.72;;;1.50;;
55827;SDS011;41758;51.992;5.890;2022-09-13T14:47:05;5.07;;;1.60;;
55827;SDS011;41758;51.992;5.890;2022-09-13T14:49:57;5.68;;;1.60;;
55827;SDS011;41758;51.992;5.890;2022-09-13T14:52:27;4.83;;;1.70;;
55827;SDS011;41758;51.992;5.890;2022-09-13T14:54:58;4.32;;;1.60;;
55827;SDS011;41758;51.992;5.890;2022-09-13T14:57:30;5.50;;;1.70;;
55827;SDS011;41758;51.992;5.890;2022-09-13T15:00:05;6.07;;;1.75;;
55827;SDS011;41758;51.992;5.890;2022-09-13T15:06:27;3.45;;;1.60;;
55827;SDS011;41758;51.992;5.890;2022-09-13T15:09:39;7.93;;;1.70;;
55827;SDS011;41758;51.992;5.890;2022-09-13T15:12:17;6.20;;;1.70;;
55827;SDS011;41758;51.992;5.890;2022-09-13T15:15:12;4.57;;;1.70;;
55827;SDS011;41758;51.992;5.890;2022-09-13T15:17:57;4.63;;;1.60;;
55827;SDS011;41758;51.992;5.890;2022-09-13T15:20:26;4.13;;;1.55;;
55827;SDS011;41758;51.992;5.890;2022-09-13T15:22:54;6.95;;;1.70;;
55827;SDS011;41758;51.992;5.890;2022-09-13T15:25:27;6.32;;;1.45;;
55827;SDS011;41758;51.992;5.890;2022-09-13T15:27:56;3.90;;;1.50;;
55827;SDS011;41758;51.992;5.890;2022-09-13T15:35:37;3.90;;;1.55;;
55827;SDS011;41758;51.992;5.890;2022-09-13T15:40:43;5.13;;;1.50;;
55827;SDS011;41758;51.992;5.890;2022-09-13T15:43:22;6.07;;;1.70;;
55827;SDS011;41758;51.992;5.890;2022-09-13T15:45:48;6.20;;;1.60;;
55827;SDS011;41758;51.992;5.890;2022-09-13T15:48:16;2.72;;;1.45;;
55827;SDS011;41758;51.992;5.890;2022-09-13T15:51:09;3.20;;;1.42;;
55827;SDS011;41758;51.992;5.890;2022-09-13T15:53:42;3.63;;;1.38;;
55827;SDS011;41758;51.992;5.890;2022-09-13T15:56:12;5.28;;;1.50;;
55827;SDS011;41758;51.992;5.890;2022-09-13T15:58:39;6.68;;;1.58;;
55827;SDS011;41758;51.992;5.890;2022-09-13T16:01:05;3.88;;;1.55;;
55827;SDS011;41758;51.992;5.890;2022-09-13T16:03:31;4.68;;;1.40;;
55827;SDS011;41758;51.992;5.890;2022-09-13T16:05:57;5.93;;;1.40;;
55827;SDS011;41758;51.992;5.890;2022-09-13T16:08:23;5.20;;;1.50;;
55827;SDS011;41758;51.992;5.890;2022-09-13T16:10:49;5.05;;;1.40;;
55827;SDS011;41758;51.992;5.890;2022-09-13T16:13:15;4.60;;;1.52;;
55827;SDS011;41758;51.992;5.890;2022-09-13T16:15:41;5.93;;;1.60;;
55827;SDS011;41758;51.992;5.890;2022-09-13T16:18:07;4.75;;;1.52;;
55827;SDS011;41758;51.992;5.890;2022-09-13T16:20:34;3.30;;;1.40;;
55827;SDS011;41758;51.992;5.890;2022-09-13T16:23:00;4.78;;;1.73;;
55827;SDS011;41758;51.992;5.890;2022-09-13T16:25:26;5.32;;;1.60;;
55827;SDS011;41758;51.992;5.890;2022-09-13T16:27:51;6.05;;;1.48;;
55827;SDS011;41758;51.992;5.890;2022-09-13T16:30:19;3.75;;;1.50;;
55827;SDS011;41758;51.992;5.890;2022-09-13T16:32:46;6.50;;;2.70;;
55827;SDS011;41758;51.992;5.890;2022-09-13T16:35:12;7.03;;;1.85;;
55827;SDS011;41758;51.992;5.890;2022-09-13T16:37:40;7.50;;;2.67;;
55827;SDS011;41758;51.992;5.890;2022-09-13T16:40:06;9.57;;;2.53;;
55827;SDS011;41758;51.992;5.890;2022-09-13T16:42:34;8.05;;;1.70;;
55827;SDS011;41758;51.992;5.890;2022-09-13T16:45:00;5.28;;;1.67;;
55827;SDS011;41758;51.992;5.890;2022-09-13T16:47:25;5.45;;;1.50;;
55827;SDS011;41758;51.992;5.890;2022-09-13T16:49:51;6.03;;;1.50;;
55827;SDS011;41758;51.992;5.890;2022-09-13T16:52:17;5.00;;;1.50;;
55827;SDS011;41758;51.992;5.890;2022-09-13T16:54:42;6.13;;;1.50;;
55827;SDS011;41758;51.992;5.890;2022-09-13T16:57:22;7.25;;;1.60;;
55827;SDS011;41758;51.992;5.890;2022-09-13T16:59:51;7.78;;;2.10;;
55827;SDS011;41758;51.992;5.890;2022-09-13T17:02:39;9.25;;;1.65;;
55827;SDS011;41758;51.992;5.890;2022-09-13T17:05:16;6.50;;;1.38;;
55827;SDS011;41758;51.992;5.890;2022-09-13T17:07:47;6.90;;;1.38;;
55827;SDS011;41758;51.992;5.890;2022-09-13T17:11:01;7.18;;;1.70;;
55827;SDS011;41758;51.992;5.890;2022-09-13T17:13:38;10.48;;;1.77;;
55827;SDS011;41758;51.992;5.890;2022-09-13T17:16:06;7.57;;;1.60;;
55827;SDS011;41758;51.992;5.890;2022-09-13T17:18:43;6.50;;;1.58;;
55827;SDS011;41758;51.992;5.890;2022-09-13T17:21:08;6.13;;;1.50;;
55827;SDS011;41758;51.992;5.890;2022-09-13T17:23:34;7.75;;;1.50;;
55827;SDS011;41758;51.992;5.890;2022-09-13T17:26:00;6.90;;;1.52;;
55827;SDS011;41758;51.992;5.890;2022-09-13T17:28:26;9.43;;;1.50;;
55827;SDS011;41758;51.992;5.890;2022-09-13T17:30:51;6.25;;;1.35;;
55827;SDS011;41758;51.992;5.890;2022-09-13T17:33:17;6.07;;;1.20;;
55827;SDS011;41758;51.992;5.890;2022-09-13T17:35:43;7.50;;;1.33;;
55827;SDS011;41758;51.992;5.890;2022-09-13T17:38:09;6.22;;;1.63;;
55827;SDS011;41758;51.992;5.890;2022-09-13T17:40:35;5.05;;;1.38;;
55827;SDS011;41758;51.992;5.890;2022-09-13T17:43:01;8.80;;;1.52;;
55827;SDS011;41758;51.992;5.890;2022-09-13T17:45:28;9.18;;;1.60;;
55827;SDS011;41758;51.992;5.890;2022-09-13T17:47:54;6.38;;;1.52;;
55827;SDS011;41758;51.992;5.890;2022-09-13T17:50:21;5.03;;;1.33;;
55827;SDS011;41758;51.992;5.890;2022-09-13T17:52:47;7.97;;;1.40;;
55827;SDS011;41758;51.992;5.890;2022-09-13T17:55:13;7.80;;;1.55;;
55827;SDS011;41758;51.992;5.890;2022-09-13T17:57:39;5.80;;;1.38;;
55827;SDS011;41758;51.992;5.890;2022-09-13T18:00:05;5.50;;;1.42;;
55827;SDS011;41758;51.992;5.890;2022-09-13T18:02:37;4.90;;;1.30;;
55827;SDS011;41758;51.992;5.890;2022-09-13T18:05:08;8.63;;;1.40;;
55827;SDS011;41758;51.992;5.890;2022-09-13T18:07:33;6.80;;;1.30;;
55827;SDS011;41758;51.992;5.890;2022-09-13T18:09:59;5.35;;;1.48;;
55827;SDS011;41758;51.992;5.890;2022-09-13T18:12:25;5.20;;;1.45;;